sensor_id;sensor_type;location;lat;lon;timestamp;pressure;altitude;pressure_sealevel;temperature;humidity
2841;BME280;53423;49.224;12.074;2023-06-22T00:00:12;97973.28;;;19.10;70.53
2841;BME280;53423;49.224;12.074;2023-06-22T00:02:41;97969.22;;;19.08;69.98
2841;BME280;53423;49.224;12.074;2023-06-22T00:05:09;97970.06;;;19.02;70.31
2841;BME280;53423;49.224;12.074;2023-06-22T00:07:37;97961.69;;;18.98;70.21
2841;BME280;53423;49.224;12.074;2023-06-22T00:10:06;97950.03;;;18.99;70.12
2841;BME280;53423;49.224;12.074;2023-06-22T00:12:35;97959.44;;;18.95;70.14
2841;BME280;53423;49.224;12.074;2023-06-22T00:15:04;97965.16;;;18.99;71.10
2841;BME280;53423;49.224;12.074;2023-06-22T00:17:33;97967.22;;;18.97;71.60
2841;BME280;53423;49.224;12.074;2023-06-22T00:20:01;97952.06;;;18.97;71.83
2841;BME280;53423;49.224;12.074;2023-06-22T00:22:32;97931.22;;;19.01;72.36
2841;BME280;53423;49.224;12.074;2023-06-22T00:25:06;97930.97;;;19.09;71.92
2841;BME280;53423;49.224;12.074;2023-06-22T00:27:36;97921.56;;;19.13;72.75
2841;BME280;53423;49.224;12.074;2023-06-22T00:30:05;97926.22;;;19.17;72.67
2841;BME280;53423;49.224;12.074;2023-06-22T00:32:33;97936.03;;;19.23;73.11
2841;BME280;53423;49.224;12.074;2023-06-22T00:35:01;97940.69;;;19.28;73.14
2841;BME280;53423;49.224;12.074;2023-06-22T00:37:29;97940.06;;;19.32;73.25
2841;BME280;53423;49.224;12.074;2023-06-22T00:39:57;97949.91;;;19.25;72.38
2841;BME280;53423;49.224;12.074;2023-06-22T00:42:25;97951.00;;;19.11;71.75
2841;BME280;53423;49.224;12.074;2023-06-22T00:44:55;97941.19;;;19.05;71.25
2841;BME280;53423;49.224;12.074;2023-06-22T00:47:23;97941.63;;;19.02;70.41
2841;BME280;53423;49.224;12.074;2023-06-22T00:49:51;97933.28;;;18.92;70.28
2841;BME280;53423;49.224;12.074;2023-06-22T00:52:20;97923.31;;;18.88;69.63
2841;BME280;53423;49.224;12.074;2023-06-22T00:54:53;97932.34;;;18.74;69.81
2841;BME280;53423;49.224;12.074;2023-06-22T00:57:22;97936.84;;;18.73;69.87
2841;BME280;53423;49.224;12.074;2023-06-22T00:59:52;97935.84;;;18.68;69.92
2841;BME280;53423;49.224;12.074;2023-06-22T01:02:21;97936.25;;;18.71;70.56
2841;BME280;53423;49.224;12.074;2023-06-22T01:04:49;97929.28;;;18.70;70.26
2841;BME280;53423;49.224;12.074;2023-06-22T01:07:21;97937.47;;;18.69;70.46
2841;BME280;53423;49.224;12.074;2023-06-22T01:09:57;97939.31;;;18.62;70.82
2841;BME280;53423;49.224;12.074;2023-06-22T01:12:30;97934.81;;;18.69;72.14
2841;BME280;53423;49.224;12.074;2023-06-22T01:15:05;97934.19;;;18.73;71.16
2841;BME280;53423;49.224;12.074;2023-06-22T01:17:40;97927.66;;;18.69;71.60
2841;BME280;53423;49.224;12.074;2023-06-22T01:20:09;97920.34;;;18.65;70.38
2841;BME280;53423;49.224;12.074;2023-06-22T01:22:48;97915.22;;;18.56;71.58
2841;BME280;53423;49.224;12.074;2023-06-22T01:25:20;97911.38;;;18.52;72.16
2841;BME280;53423;49.224;12.074;2023-06-22T01:27:55;97902.97;;;18.62;72.35
2841;BME280;53423;49.224;12.074;2023-06-22T01:30:29;97906.47;;;18.56;72.99
2841;BME280;53423;49.224;12.074;2023-06-22T01:33:02;97912.56;;;18.56;72.95
2841;BME280;53423;49.224;12.074;2023-06-22T01:35:31;97921.16;;;18.58;73.58
2841;BME280;53423;49.224;12.074;2023-06-22T01:38:00;97916.66;;;18.59;73.47
2841;BME280;53423;49.224;12.074;2023-06-22T01:40:29;97917.72;;;18.45;73.43
2841;BME280;53423;49.224;12.074;2023-06-22T01:42:59;97923.63;;;18.53;73.51
2841;BME280;53423;49.224;12.074;2023-06-22T01:45:30;97922.41;;;18.36;72.86
2841;BME280;53423;49.224;12.074;2023-06-22T01:47:58;97918.53;;;18.32;72.58
2841;BME280;53423;49.224;12.074;2023-06-22T01:50:26;97930.97;;;18.38;72.30
2841;BME280;53423;49.224;12.074;2023-06-22T01:52:55;97932.22;;;18.36;72.72
2841;BME280;53423;49.224;12.074;2023-06-22T01:55:23;97926.72;;;18.44;74.15
2841;BME280;53423;49.224;12.074;2023-06-22T01:57:51;97923.63;;;18.53;74.50
2841;BME280;53423;49.224;12.074;2023-06-22T02:00:21;97921.97;;;18.59;75.17
2841;BME280;53423;49.224;12.074;2023-06-22T02:02:56;97923.97;;;18.70;75.70
2841;BME280;53423;49.224;12.074;2023-06-22T02:05:27;97921.69;;;18.80;75.36
2841;BME280;53423;49.224;12.074;2023-06-22T02:08:01;97913.13;;;18.78;74.98
2841;BME280;53423;49.224;12.074;2023-06-22T02:10:31;97915.78;;;18.78;75.25
2841;BME280;53423;49.224;12.074;2023-06-22T02:13:00;97929.06;;;18.85;75.59
2841;BME280;53423;49.224;12.074;2023-06-22T02:15:29;97928.59;;;18.94;75.83
2841;BME280;53423;49.224;12.074;2023-06-22T02:17:59;97922.63;;;18.99;75.77
2841;BME280;53423;49.224;12.074;2023-06-22T02:20:27;97924.69;;;19.03;76.35
2841;BME280;53423;49.224;12.074;2023-06-22T02:22:55;97929.56;;;19.06;76.42
2841;BME280;53423;49.224;12.074;2023-06-22T02:25:24;97922.78;;;19.10;76.52
2841;BME280;53423;49.224;12.074;2023-06-22T02:27:52;97925.03;;;19.13;76.04
2841;BME280;53423;49.224;12.074;2023-06-22T02:30:19;97924.22;;;19.13;76.41
2841;BME280;53423;49.224;12.074;2023-06-22T02:32:48;97926.47;;;19.09;76.42
2841;BME280;53423;49.224;12.074;2023-06-22T02:35:17;97926.06;;;19.12;76.38
2841;BME280;53423;49.224;12.074;2023-06-22T02:37:45;97926.91;;;19.06;75.91
2841;BME280;53423;49.224;12.074;2023-06-22T02:40:13;97932.25;;;19.00;76.24
2841;BME280;53423;49.224;12.074;2023-06-22T02:42:41;97932.66;;;19.03;76.20
2841;BME280;53423;49.224;12.074;2023-06-22T02:45:09;97926.69;;;19.08;76.09
2841;BME280;53423;49.224;12.074;2023-06-22T02:47:37;97931.75;;;19.16;76.09
2841;BME280;53423;49.224;12.074;2023-06-22T02:50:06;97930.94;;;19.15;75.90
2841;BME280;53423;49.224;12.074;2023-06-22T02:52:35;97931.09;;;19.20;75.91
2841;BME280;53423;49.224;12.074;2023-06-22T02:55:05;97927.25;;;19.16;76.38
2841;BME280;53423;49.224;12.074;2023-06-22T02:57:34;97926.84;;;19.19;76.22
2841;BME280;53423;49.224;12.074;2023-06-22T03:00:03;97924.78;;;19.21;76.03
2841;BME280;53423;49.224;12.074;2023-06-22T03:02:43;97921.53;;;19.19;76.09
2841;BME280;53423;49.224;12.074;2023-06-22T03:05:12;97927.22;;;19.23;76.29
2841;BME280;53423;49.224;12.074;2023-06-22T03:07:43;97926.59;;;19.27;76.28
2841;BME280;53423;49.224;12.074;2023-06-22T03:10:12;97938.47;;;19.25;76.10
2841;BME280;53423;49.224;12.074;2023-06-22T03:12:41;97932.94;;;19.26;75.76
2841;BME280;53423;49.224;12.074;2023-06-22T03:15:10;97923.53;;;19.24;76.27
2841;BME280;53423;49.224;12.074;2023-06-22T03:17:39;97923.97;;;19.21;76.50
2841;BME280;53423;49.224;12.074;2023-06-22T03:20:09;97920.88;;;19.24;76.38
2841;BME280;53423;49.224;12.074;2023-06-22T03:22:38;97923.75;;;19.22;76.80
2841;BME280;53423;49.224;12.074;2023-06-22T03:25:09;97914.75;;;19.23;76.61
2841;BME280;53423;49.224;12.074;2023-06-22T03:27:40;97922.78;;;19.17;77.02
2841;BME280;53423;49.224;12.074;2023-06-22T03:30:10;97921.56;;;19.13;77.47
2841;BME280;53423;49.224;12.074;2023-06-22T03:32:39;97926.41;;;19.22;77.15
2841;BME280;53423;49.224;12.074;2023-06-22T03:35:07;97928.63;;;19.25;77.40
2841;BME280;53423;49.224;12.074;2023-06-22T03:37:35;97933.78;;;19.20;77.54
2841;BME280;53423;49.224;12.074;2023-06-22T03:40:04;97926.00;;;19.19;77.53
2841;BME280;53423;49.224;12.074;2023-06-22T03:42:34;97927.63;;;19.26;77.29
2841;BME280;53423;49.224;12.074;2023-06-22T03:45:03;97924.97;;;19.26;77.15
2841;BME280;53423;49.224;12.074;2023-06-22T03:47:32;97925.44;;;19.17;77.40
2841;BME280;53423;49.224;12.074;2023-06-22T03:50:00;97936.25;;;19.22;77.45
2841;BME280;53423;49.224;12.074;2023-06-22T03:52:30;97935.00;;;19.24;77.26
2841;BME280;53423;49.224;12.074;2023-06-22T03:54:58;97948.28;;;19.31;77.36
2841;BME280;53423;49.224;12.074;2023-06-22T03:57:26;97951.97;;;19.30;76.80
2841;BME280;53423;49.224;12.074;2023-06-22T03:59:56;97958.28;;;19.35;77.06
2841;BME280;53423;49.224;12.074;2023-06-22T04:02:24;97955.81;;;19.34;76.94
2841;BME280;53423;49.224;12.074;2023-06-22T04:04:52;97967.44;;;19.39;77.34
2841;BME280;53423;49.224;12.074;2023-06-22T04:07:20;97973.13;;;19.49;76.76
2841;BME280;53423;49.224;12.074;2023-06-22T04:09:48;97964.53;;;19.47;76.36
2841;BME280;53423;49.224;12.074;2023-06-22T04:12:16;97973.13;;;19.49;76.46
2841;BME280;53423;49.224;12.074;2023-06-22T04:14:44;97969.03;;;19.53;76.39
2841;BME280;53423;49.224;12.074;2023-06-22T04:17:13;97963.69;;;19.53;76.90
2841;BME280;53423;49.224;12.074;2023-06-22T04:19:41;97953.97;;;19.72;75.99
2841;BME280;53423;49.224;12.074;2023-06-22T04:22:09;97947.81;;;19.71;75.79
2841;BME280;53423;49.224;12.074;2023-06-22T04:24:38;97952.09;;;19.72;76.02
2841;BME280;53423;49.224;12.074;2023-06-22T04:27:06;97959.34;;;19.65;76.09
2841;BME280;53423;49.224;12.074;2023-06-22T04:29:34;97948.09;;;19.63;76.35
2841;BME280;53423;49.224;12.074;2023-06-22T04:32:03;97957.94;;;19.56;76.79
2841;BME280;53423;49.224;12.074;2023-06-22T04:34:33;97956.06;;;19.63;76.83
2841;BME280;53423;49.224;12.074;2023-06-22T04:37:01;97954.34;;;19.75;76.35
2841;BME280;53423;49.224;12.074;2023-06-22T04:39:29;97956.75;;;19.84;76.20
2841;BME280;53423;49.224;12.074;2023-06-22T04:41:58;97947.28;;;19.88;75.96
2841;BME280;53423;49.224;12.074;2023-06-22T04:44:27;97945.66;;;19.87;75.95
2841;BME280;53423;49.224;12.074;2023-06-22T04:46:56;97943.59;;;19.89;76.41
2841;BME280;53423;49.224;12.074;2023-06-22T04:49:27;97941.56;;;19.91;76.36
2841;BME280;53423;49.224;12.074;2023-06-22T04:52:02;97933.28;;;19.99;76.00
2841;BME280;53423;49.224;12.074;2023-06-22T04:54:30;97934.28;;;20.04;75.76
2841;BME280;53423;49.224;12.074;2023-06-22T04:56:59;97925.47;;;20.04;75.63
2841;BME280;53423;49.224;12.074;2023-06-22T04:59:28;97936.66;;;20.12;75.93
2841;BME280;53423;49.224;12.074;2023-06-22T05:01:58;97941.97;;;20.12;76.00
2841;BME280;53423;49.224;12.074;2023-06-22T05:04:27;97938.34;;;20.07;76.13
2841;BME280;53423;49.224;12.074;2023-06-22T05:06:58;97928.28;;;20.09;75.86
2841;BME280;53423;49.224;12.074;2023-06-22T05:09:29;97943.22;;;20.10;76.04
2841;BME280;53423;49.224;12.074;2023-06-22T05:11:57;97936.84;;;20.17;75.52
2841;BME280;53423;49.224;12.074;2023-06-22T05:14:26;97929.69;;;20.18;75.14
2841;BME280;53423;49.224;12.074;2023-06-22T05:16:54;97923.84;;;20.27;75.24
2841;BME280;53423;49.224;12.074;2023-06-22T05:19:25;97914.19;;;20.33;75.24
2841;BME280;53423;49.224;12.074;2023-06-22T05:22:00;97910.03;;;20.37;74.79
2841;BME280;53423;49.224;12.074;2023-06-22T05:24:30;97898.84;;;20.46;74.20
2841;BME280;53423;49.224;12.074;2023-06-22T05:26:57;97908.47;;;20.47;74.16
2841;BME280;53423;49.224;12.074;2023-06-22T05:29:25;97907.34;;;20.55;74.03
2841;BME280;53423;49.224;12.074;2023-06-22T05:31:54;97904.94;;;20.71;73.45
2841;BME280;53423;49.224;12.074;2023-06-22T05:34:21;97902.28;;;20.71;73.47
2841;BME280;53423;49.224;12.074;2023-06-22T05:36:49;97897.53;;;20.91;73.40
2841;BME280;53423;49.224;12.074;2023-06-22T05:39:17;97899.38;;;20.91;73.22
2841;BME280;53423;49.224;12.074;2023-06-22T05:41:47;97895.59;;;20.98;72.40
2841;BME280;53423;49.224;12.074;2023-06-22T05:44:15;97902.63;;;21.11;73.00
2841;BME280;53423;49.224;12.074;2023-06-22T05:46:43;97901.69;;;21.35;71.51
2841;BME280;53423;49.224;12.074;2023-06-22T05:49:13;97907.06;;;21.58;70.72
2841;BME280;53423;49.224;12.074;2023-06-22T05:51:42;97901.28;;;21.61;70.19
2841;BME280;53423;49.224;12.074;2023-06-22T05:54:09;97907.00;;;21.76;69.37
2841;BME280;53423;49.224;12.074;2023-06-22T05:56:40;97914.50;;;22.09;68.49
2841;BME280;53423;49.224;12.074;2023-06-22T05:59:09;97901.63;;;22.29;67.29
2841;BME280;53423;49.224;12.074;2023-06-22T06:01:37;97899.16;;;22.62;66.54
2841;BME280;53423;49.224;12.074;2023-06-22T06:04:06;97894.25;;;22.82;65.88
2841;BME280;53423;49.224;12.074;2023-06-22T06:06:35;97894.00;;;23.12;65.21
2841;BME280;53423;49.224;12.074;2023-06-22T06:09:04;97889.19;;;23.25;64.93
2841;BME280;53423;49.224;12.074;2023-06-22T06:11:34;97884.44;;;23.27;64.09
2841;BME280;53423;49.224;12.074;2023-06-22T06:14:02;97884.38;;;23.39;63.88
2841;BME280;53423;49.224;12.074;2023-06-22T06:16:31;97871.69;;;23.79;63.20
2841;BME280;53423;49.224;12.074;2023-06-22T06:18:59;97870.91;;;24.12;62.36
2841;BME280;53423;49.224;12.074;2023-06-22T06:21:27;97863.03;;;24.43;61.38
2841;BME280;53423;49.224;12.074;2023-06-22T06:23:56;97862.25;;;24.65;60.48
2841;BME280;53423;49.224;12.074;2023-06-22T06:26:25;97876.63;;;24.75;59.97
2841;BME280;53423;49.224;12.074;2023-06-22T06:28:56;97880.03;;;24.92;59.67
2841;BME280;53423;49.224;12.074;2023-06-22T06:31:25;97867.88;;;25.06;58.82
2841;BME280;53423;49.224;12.074;2023-06-22T06:33:56;97870.50;;;25.28;58.55
2841;BME280;53423;49.224;12.074;2023-06-22T06:36:24;97866.34;;;25.37;58.46
2841;BME280;53423;49.224;12.074;2023-06-22T06:38:52;97864.28;;;25.49;57.55
2841;BME280;53423;49.224;12.074;2023-06-22T06:41:20;97853.72;;;25.69;56.75
2841;BME280;53423;49.224;12.074;2023-06-22T06:43:48;97862.94;;;25.78;57.05
2841;BME280;53423;49.224;12.074;2023-06-22T06:46:16;97846.41;;;25.96;57.05
2841;BME280;53423;49.224;12.074;2023-06-22T06:48:45;97854.44;;;26.28;56.23
2841;BME280;53423;49.224;12.074;2023-06-22T06:51:15;97847.16;;;26.70;55.50
2841;BME280;53423;49.224;12.074;2023-06-22T06:53:43;97840.53;;;26.92;54.18
2841;BME280;53423;49.224;12.074;2023-06-22T06:56:11;97844.06;;;26.98;53.45
2841;BME280;53423;49.224;12.074;2023-06-22T06:58:40;97850.00;;;27.15;53.50
2841;BME280;53423;49.224;12.074;2023-06-22T07:01:09;97843.63;;;27.31;52.97
2841;BME280;53423;49.224;12.074;2023-06-22T07:03:36;97836.63;;;27.45;53.11
2841;BME280;53423;49.224;12.074;2023-06-22T07:06:04;97834.47;;;27.77;51.74
2841;BME280;53423;49.224;12.074;2023-06-22T07:08:34;97830.69;;;27.88;51.31
2841;BME280;53423;49.224;12.074;2023-06-22T07:11:03;97830.16;;;28.06;50.85
2841;BME280;53423;49.224;12.074;2023-06-22T07:13:31;97826.06;;;28.34;50.76
2841;BME280;53423;49.224;12.074;2023-06-22T07:16:00;97820.66;;;28.34;50.08
2841;BME280;53423;49.224;12.074;2023-06-22T07:18:28;97819.81;;;28.44;49.68
2841;BME280;53423;49.224;12.074;2023-06-22T07:20:57;97817.34;;;28.62;48.90
2841;BME280;53423;49.224;12.074;2023-06-22T07:23:25;97808.88;;;28.84;48.24
2841;BME280;53423;49.224;12.074;2023-06-22T07:25:54;97805.78;;;29.10;47.42
2841;BME280;53423;49.224;12.074;2023-06-22T07:28:22;97808.19;;;29.17;46.72
2841;BME280;53423;49.224;12.074;2023-06-22T07:30:50;97807.53;;;29.35;46.00
2841;BME280;53423;49.224;12.074;2023-06-22T07:33:18;97798.25;;;29.46;45.96
2841;BME280;53423;49.224;12.074;2023-06-22T07:35:46;97798.22;;;29.51;45.79
2841;BME280;53423;49.224;12.074;2023-06-22T07:38:15;97793.75;;;29.70;45.28
2841;BME280;53423;49.224;12.074;2023-06-22T07:40:43;97789.34;;;29.79;44.13
2841;BME280;53423;49.224;12.074;2023-06-22T07:43:12;97788.91;;;29.96;43.98
2841;BME280;53423;49.224;12.074;2023-06-22T07:45:40;97784.63;;;30.18;43.63
2841;BME280;53423;49.224;12.074;2023-06-22T07:48:09;97794.84;;;30.26;42.18
2841;BME280;53423;49.224;12.074;2023-06-22T07:50:37;97796.06;;;30.39;42.15
2841;BME280;53423;49.224;12.074;2023-06-22T07:53:05;97797.56;;;30.69;42.12
2841;BME280;53423;49.224;12.074;2023-06-22T07:55:33;97784.25;;;30.72;41.82
2841;BME280;53423;49.224;12.074;2023-06-22T07:58:01;97789.28;;;30.84;41.78
2841;BME280;53423;49.224;12.074;2023-06-22T08:00:30;97785.13;;;31.10;41.49
2841;BME280;53423;49.224;12.074;2023-06-22T08:03:00;97785.41;;;31.27;40.91
2841;BME280;53423;49.224;12.074;2023-06-22T08:05:31;97783.88;;;31.21;41.33
2841;BME280;53423;49.224;12.074;2023-06-22T08:07:59;97779.28;;;31.40;40.21
2841;BME280;53423;49.224;12.074;2023-06-22T08:10:27;97776.97;;;31.47;41.27
2841;BME280;53423;49.224;12.074;2023-06-22T08:12:55;97781.38;;;31.43;39.82
2841;BME280;53423;49.224;12.074;2023-06-22T08:15:23;97778.28;;;31.82;38.90
2841;BME280;53423;49.224;12.074;2023-06-22T08:17:52;97780.19;;;31.81;39.16
2841;BME280;53423;49.224;12.074;2023-06-22T08:20:20;97772.13;;;32.22;39.49
2841;BME280;53423;49.224;12.074;2023-06-22T08:22:48;97767.34;;;32.59;38.22
2841;BME280;53423;49.224;12.074;2023-06-22T08:25:16;97769.75;;;32.61;37.50
2841;BME280;53423;49.224;12.074;2023-06-22T08:27:45;97764.66;;;32.95;37.50
2841;BME280;53423;49.224;12.074;2023-06-22T08:30:15;97762.44;;;32.97;36.45
2841;BME280;53423;49.224;12.074;2023-06-22T08:32:43;97763.47;;;33.23;35.99
2841;BME280;53423;49.224;12.074;2023-06-22T08:35:13;97751.91;;;33.18;36.29
2841;BME280;53423;49.224;12.074;2023-06-22T08:37:41;97764.34;;;32.97;36.24
2841;BME280;53423;49.224;12.074;2023-06-22T08:40:09;97756.31;;;32.92;35.79
2841;BME280;53423;49.224;12.074;2023-06-22T08:42:39;97760.88;;;33.40;35.29
2841;BME280;53423;49.224;12.074;2023-06-22T08:45:09;97762.69;;;33.67;35.51
2841;BME280;53423;49.224;12.074;2023-06-22T08:47:37;97761.63;;;33.76;34.71
2841;BME280;53423;49.224;12.074;2023-06-22T08:50:06;97754.34;;;33.85;35.15
2841;BME280;53423;49.224;12.074;2023-06-22T08:52:37;97753.34;;;33.81;33.41
2841;BME280;53423;49.224;12.074;2023-06-22T08:55:06;97752.88;;;34.10;33.85
2841;BME280;53423;49.224;12.074;2023-06-22T08:57:35;97752.38;;;34.47;32.76
2841;BME280;53423;49.224;12.074;2023-06-22T09:00:07;97749.72;;;34.73;31.38
2841;BME280;53423;49.224;12.074;2023-06-22T09:02:43;97745.47;;;34.50;32.62
2841;BME280;53423;49.224;12.074;2023-06-22T09:05:11;97739.03;;;33.98;33.49
2841;BME280;53423;49.224;12.074;2023-06-22T09:07:40;97742.44;;;34.04;33.78
2841;BME280;53423;49.224;12.074;2023-06-22T09:10:09;97751.50;;;34.38;32.11
2841;BME280;53423;49.224;12.074;2023-06-22T09:12:37;97752.13;;;34.27;31.97
2841;BME280;53423;49.224;12.074;2023-06-22T09:15:06;97751.28;;;34.65;31.41
2841;BME280;53423;49.224;12.074;2023-06-22T09:17:40;97750.16;;;34.66;31.52
2841;BME280;53423;49.224;12.074;2023-06-22T09:20:09;97749.84;;;34.76;31.15
2841;BME280;53423;49.224;12.074;2023-06-22T09:22:37;97744.16;;;35.03;29.96
2841;BME280;53423;49.224;12.074;2023-06-22T09:25:08;97742.56;;;35.11;30.46
2841;BME280;53423;49.224;12.074;2023-06-22T09:27:36;97752.66;;;35.53;31.06
2841;BME280;53423;49.224;12.074;2023-06-22T09:30:06;97738.38;;;35.48;30.27
2841;BME280;53423;49.224;12.074;2023-06-22T09:32:34;97741.59;;;35.41;30.55
2841;BME280;53423;49.224;12.074;2023-06-22T09:35:05;97734.34;;;35.54;30.30
2841;BME280;53423;49.224;12.074;2023-06-22T09:37:35;97721.94;;;35.82;28.99
2841;BME280;53423;49.224;12.074;2023-06-22T09:40:05;97711.06;;;36.11;29.16
2841;BME280;53423;49.224;12.074;2023-06-22T09:42:38;97714.22;;;36.21;29.43
2841;BME280;53423;49.224;12.074;2023-06-22T09:45:07;97720.31;;;36.36;28.81
2841;BME280;53423;49.224;12.074;2023-06-22T09:47:35;97714.59;;;36.11;28.79
2841;BME280;53423;49.224;12.074;2023-06-22T09:50:05;97711.72;;;36.46;28.45
2841;BME280;53423;49.224;12.074;2023-06-22T09:52:33;97708.88;;;36.63;28.67
2841;BME280;53423;49.224;12.074;2023-06-22T09:55:14;97703.94;;;36.77;28.15
2841;BME280;53423;49.224;12.074;2023-06-22T09:57:44;97704.38;;;36.87;26.87
2841;BME280;53423;49.224;12.074;2023-06-22T10:00:13;97696.16;;;37.28;27.32
2841;BME280;53423;49.224;12.074;2023-06-22T10:02:42;97699.56;;;37.05;27.51
2841;BME280;53423;49.224;12.074;2023-06-22T10:05:11;97692.06;;;37.14;26.77
2841;BME280;53423;49.224;12.074;2023-06-22T10:07:39;97683.16;;;37.25;26.56
2841;BME280;53423;49.224;12.074;2023-06-22T10:10:11;97689.69;;;37.33;26.55
2841;BME280;53423;49.224;12.074;2023-06-22T10:12:41;97684.56;;;37.44;27.09
2841;BME280;53423;49.224;12.074;2023-06-22T10:15:12;97676.47;;;37.47;27.72
2841;BME280;53423;49.224;12.074;2023-06-22T10:17:40;97680.31;;;37.34;27.21
2841;BME280;53423;49.224;12.074;2023-06-22T10:20:09;97668.72;;;37.49;26.97
2841;BME280;53423;49.224;12.074;2023-06-22T10:22:39;97676.88;;;37.70;27.03
2841;BME280;53423;49.224;12.074;2023-06-22T10:25:08;97664.84;;;37.95;27.01
2841;BME280;53423;49.224;12.074;2023-06-22T10:27:36;97663.38;;;38.21;25.01
2841;BME280;53423;49.224;12.074;2023-06-22T10:30:07;97665.34;;;37.64;25.90
2841;BME280;53423;49.224;12.074;2023-06-22T10:32:37;97661.78;;;37.52;26.07
2841;BME280;53423;49.224;12.074;2023-06-22T10:35:06;97660.88;;;37.48;26.37
2841;BME280;53423;49.224;12.074;2023-06-22T10:37:34;97643.63;;;37.35;27.07
2841;BME280;53423;49.224;12.074;2023-06-22T10:40:02;97650.66;;;37.81;26.99
2841;BME280;53423;49.224;12.074;2023-06-22T10:42:31;97639.03;;;38.08;26.27
2841;BME280;53423;49.224;12.074;2023-06-22T10:44:58;97638.81;;;38.01;25.43
2841;BME280;53423;49.224;12.074;2023-06-22T10:47:26;97630.81;;;37.96;25.28
2841;BME280;53423;49.224;12.074;2023-06-22T10:49:56;97621.81;;;37.83;25.58
2841;BME280;53423;49.224;12.074;2023-06-22T10:52:24;97630.59;;;38.25;25.97
2841;BME280;53423;49.224;12.074;2023-06-22T10:54:51;97626.59;;;37.74;25.12
2841;BME280;53423;49.224;12.074;2023-06-22T10:57:21;97621.25;;;37.90;26.40
2841;BME280;53423;49.224;12.074;2023-06-22T10:59:49;97608.00;;;38.16;26.20
2841;BME280;53423;49.224;12.074;2023-06-22T11:02:17;97601.63;;;37.88;25.26
2841;BME280;53423;49.224;12.074;2023-06-22T11:04:45;97590.06;;;38.06;26.10
2841;BME280;53423;49.224;12.074;2023-06-22T11:07:15;97597.47;;;37.58;26.03
2841;BME280;53423;49.224;12.074;2023-06-22T11:09:43;97600.50;;;37.89;25.94
2841;BME280;53423;49.224;12.074;2023-06-22T11:12:11;97601.03;;;37.82;26.00
2841;BME280;53423;49.224;12.074;2023-06-22T11:14:39;97603.53;;;38.11;24.83
2841;BME280;53423;49.224;12.074;2023-06-22T11:17:07;97596.31;;;38.43;25.17
2841;BME280;53423;49.224;12.074;2023-06-22T11:19:35;97589.28;;;38.18;25.17
2841;BME280;53423;49.224;12.074;2023-06-22T11:22:04;97579.66;;;38.36;24.97
2841;BME280;53423;49.224;12.074;2023-06-22T11:24:34;97578.25;;;38.54;24.85
2841;BME280;53423;49.224;12.074;2023-06-22T11:27:02;97573.88;;;38.65;24.86
2841;BME280;53423;49.224;12.074;2023-06-22T11:29:31;97556.69;;;39.08;23.94
2841;BME280;53423;49.224;12.074;2023-06-22T11:32:05;97564.38;;;38.90;24.28
2841;BME280;53423;49.224;12.074;2023-06-22T11:34:34;97554.31;;;38.67;24.13
2841;BME280;53423;49.224;12.074;2023-06-22T11:37:02;97546.25;;;38.46;24.66
2841;BME280;53423;49.224;12.074;2023-06-22T11:39:30;97546.50;;;37.77;24.80
2841;BME280;53423;49.224;12.074;2023-06-22T11:42:10;97558.63;;;37.76;25.19
2841;BME280;53423;49.224;12.074;2023-06-22T11:44:38;97548.75;;;37.99;24.63
2841;BME280;53423;49.224;12.074;2023-06-22T11:47:06;97546.25;;;38.18;25.11
2841;BME280;53423;49.224;12.074;2023-06-22T11:49:36;97546.47;;;38.25;25.33
2841;BME280;53423;49.224;12.074;2023-06-22T11:52:04;97540.50;;;38.35;25.81
2841;BME280;53423;49.224;12.074;2023-06-22T11:54:32;97544.66;;;38.05;25.60
2841;BME280;53423;49.224;12.074;2023-06-22T11:57:00;97541.81;;;38.02;25.77
2841;BME280;53423;49.224;12.074;2023-06-22T11:59:29;97534.63;;;37.61;25.74
2841;BME280;53423;49.224;12.074;2023-06-22T12:01:57;97531.00;;;37.81;25.79
2841;BME280;53423;49.224;12.074;2023-06-22T12:04:26;97537.56;;;38.04;26.34
2841;BME280;53423;49.224;12.074;2023-06-22T12:06:53;97536.28;;;38.26;26.23
2841;BME280;53423;49.224;12.074;2023-06-22T12:09:21;97529.81;;;38.46;26.54
2841;BME280;53423;49.224;12.074;2023-06-22T12:11:49;97526.06;;;38.50;26.21
2841;BME280;53423;49.224;12.074;2023-06-22T12:14:17;97545.34;;;38.54;25.24
2841;BME280;53423;49.224;12.074;2023-06-22T12:16:46;97545.00;;;38.16;25.12
2841;BME280;53423;49.224;12.074;2023-06-22T12:19:15;97544.94;;;38.40;25.73
2841;BME280;53423;49.224;12.074;2023-06-22T12:21:43;97539.13;;;38.29;25.85
2841;BME280;53423;49.224;12.074;2023-06-22T12:24:12;97539.75;;;38.50;25.58
2841;BME280;53423;49.224;12.074;2023-06-22T12:26:40;97540.09;;;38.61;24.70
2841;BME280;53423;49.224;12.074;2023-06-22T12:29:08;97540.19;;;38.25;26.73
2841;BME280;53423;49.224;12.074;2023-06-22T12:31:36;97531.88;;;38.49;26.62
2841;BME280;53423;49.224;12.074;2023-06-22T12:34:06;97521.03;;;38.53;25.88
2841;BME280;53423;49.224;12.074;2023-06-22T12:36:34;97516.19;;;38.62;25.39
2841;BME280;53423;49.224;12.074;2023-06-22T12:39:02;97512.34;;;38.50;25.67
2841;BME280;53423;49.224;12.074;2023-06-22T12:41:30;97499.50;;;38.67;25.64
2841;BME280;53423;49.224;12.074;2023-06-22T12:43:58;97498.38;;;38.28;25.85
2841;BME280;53423;49.224;12.074;2023-06-22T12:46:26;97496.56;;;38.32;25.49
2841;BME280;53423;49.224;12.074;2023-06-22T12:48:54;97493.72;;;38.28;25.84
2841;BME280;53423;49.224;12.074;2023-06-22T12:51:23;97487.78;;;38.26;26.26
2841;BME280;53423;49.224;12.074;2023-06-22T12:53:51;97479.31;;;38.31;26.87
2841;BME280;53423;49.224;12.074;2023-06-22T12:56:19;97483.16;;;38.42;26.18
2841;BME280;53423;49.224;12.074;2023-06-22T12:58:47;97474.44;;;38.13;25.98
2841;BME280;53423;49.224;12.074;2023-06-22T13:01:15;97478.28;;;38.51;26.55
2841;BME280;53423;49.224;12.074;2023-06-22T13:03:44;97469.97;;;38.48;27.41
2841;BME280;53423;49.224;12.074;2023-06-22T13:06:12;97465.56;;;38.43;26.59
2841;BME280;53423;49.224;12.074;2023-06-22T13:08:42;97468.00;;;38.61;26.93